Time;durP1;ratioP1;P1;durP2;ratioP2;P2;SDS_P1;SDS_P2;PMS_P1;PMS_P2;Temp;Humidity;BMP_temperature;BMP_pressure;BME280_temperature;BME280_humidity;BME280_pressure;Samples;Min_cycle;Max_cycle;Signal;HPM_P1;HPM_P2
2022/09/20 00:01:16;;;;;;;;;2.00;0.00;;;;;13.15;54.35;101592.06;5077274;27;45551;-76
2022/09/20 00:03:44;;;;;;;;;1.00;1.00;;;;;13.17;54.13;101600.88;5078748;27;46563;-77
2022/09/20 00:06:13;;;;;;;;;1.25;1.00;;;;;13.12;54.35;101585.00;5081632;27;45514;-77
2022/09/20 00:08:40;;;;;;;;;1.00;1.00;;;;;13.12;54.19;101597.41;5088285;27;45438;-78
2022/09/20 00:11:08;;;;;;;;;0.25;0.00;;;;;13.10;54.37;101588.56;5077191;28;45402;-78
2022/09/20 00:13:37;;;;;;;;;1.00;1.00;;;;;13.09;54.58;101595.69;5076913;27;45447;-79
2022/09/20 00:16:07;;;;;;;;;1.75;1.75;;;;;13.08;54.85;101595.69;5088363;27;45356;-78
2022/09/20 00:18:32;;;;;;;;;1.00;1.00;;;;;12.97;54.94;101587.88;5090616;27;45485;-78
2022/09/20 00:20:58;;;;;;;;;1.00;1.00;;;;;12.93;55.08;101586.16;5075576;28;45492;-78
2022/09/20 00:23:23;;;;;;;;;1.00;1.00;;;;;12.91;54.50;101591.50;5079297;27;47767;-78
2022/09/20 00:25:56;;;;;;;;;1.25;1.25;;;;;12.94;55.05;101594.09;5082743;27;45451;-78
2022/09/20 00:28:22;;;;;;;;;0.25;0.00;;;;;12.94;54.80;101591.44;5076706;27;45403;-78
2022/09/20 00:30:48;;;;;;;;;4.50;1.00;;;;;12.93;54.63;101589.69;5076033;27;45549;-77
2022/09/20 00:33:13;;;;;;;;;1.00;1.00;;;;;12.91;54.95;101590.63;5076727;27;45513;-78
2022/09/20 00:35:42;;;;;;;;;2.25;1.00;;;;;12.93;55.14;101586.16;5083514;27;45518;-78
2022/09/20 00:38:08;;;;;;;;;1.00;1.00;;;;;12.92;54.70;101590.59;5096898;27;45434;-77
2022/09/20 00:40:33;;;;;;;;;0.75;0.75;;;;;12.94;54.86;101594.09;5089944;27;45564;-78
2022/09/20 00:42:59;;;;;;;;;2.00;2.00;;;;;12.90;55.14;101584.44;5097037;27;45985;-77
2022/09/20 00:45:27;;;;;;;;;0.00;0.00;;;;;12.89;54.52;101576.50;5089524;27;45484;-78
2022/09/20 00:48:18;;;;;;;;;1.75;1.00;;;;;12.88;54.90;101578.28;5075002;28;45452;-77
2022/09/20 00:50:55;;;;;;;;;2.00;2.00;;;;;12.86;55.12;101585.38;5077888;27;45348;-77
2022/09/20 00:53:25;;;;;;;;;2.00;2.00;;;;;12.87;54.93;101587.13;5101262;27;45586;-77
2022/09/20 00:55:56;;;;;;;;;1.00;1.00;;;;;12.83;55.39;101579.22;5088932;27;45458;-79
2022/09/20 00:58:26;;;;;;;;;1.75;1.00;;;;;12.79;55.26;101583.72;5075892;27;45473;-78
2022/09/20 01:00:54;;;;;;;;;1.00;1.00;;;;;12.77;55.69;101591.69;5074038;27;45543;-77
2022/09/20 01:03:24;;;;;;;;;1.75;1.75;;;;;12.67;56.04;101570.59;5075988;27;45688;-77
2022/09/20 01:05:53;;;;;;;;;2.00;2.00;;;;;12.74;55.64;101586.41;5074821;27;45398;-78
2022/09/20 01:08:23;;;;;;;;;1.00;1.00;;;;;12.70;55.53;101583.81;5089257;27;45322;-78
2022/09/20 01:10:48;;;;;;;;;1.00;1.00;;;;;12.61;56.15;101582.16;5092168;27;45435;-79
2022/09/20 01:13:14;;;;;;;;;3.00;0.00;;;;;12.60;56.22;101580.41;5075631;27;45468;-77
2022/09/20 01:15:41;;;;;;;;;1.00;1.00;;;;;12.55;56.07;101577.81;5081251;27;46025;-78
2022/09/20 01:18:08;;;;;;;;;1.50;0.00;;;;;12.61;55.96;101590.97;5075040;28;45334;-77
2022/09/20 01:20:37;;;;;;;;;1.00;1.00;;;;;12.51;56.80;101568.16;5076158;27;45324;-77
2022/09/20 01:23:21;;;;;;;;;0.50;0.50;;;;;12.56;56.12;101581.34;5080229;27;46119;-77
2022/09/20 01:26:27;;;;;;;;;4.50;2.00;;;;;12.54;56.90;101570.75;5078460;27;45476;-77
2022/09/20 01:29:25;;;;;;;;;0.25;0.25;;;;;12.55;56.53;101574.28;5074611;27;45442;-78
2022/09/20 01:31:59;;;;;;;;;0.50;0.50;;;;;12.57;56.18;101581.34;5052140;28;45565;-76
2022/09/20 01:34:35;;;;;;;;;1.00;1.00;;;;;12.54;56.48;101569.88;5053732;28;46476;-77
2022/09/20 01:37:27;;;;;;;;;2.00;2.00;;;;;12.56;56.88;101578.72;5069937;28;45340;-77
2022/09/20 01:40:12;;;;;;;;;2.50;1.00;;;;;12.56;56.88;101571.63;5073736;28;45452;-77
2022/09/20 01:42:50;;;;;;;;;1.00;1.00;;;;;12.50;56.65;101574.34;5055789;28;45492;-77
2022/09/20 01:45:30;;;;;;;;;1.75;1.50;;;;;12.48;56.94;101572.59;5052908;28;46381;-77
2022/09/20 01:48:07;;;;;;;;;2.75;2.00;;;;;12.48;56.98;101573.50;5053692;28;45588;-77
2022/09/20 01:50:47;;;;;;;;;3.75;1.50;;;;;12.44;57.46;101577.06;5041457;28;45593;-77
2022/09/20 01:53:31;;;;;;;;;1.50;1.50;;;;;12.42;57.52;101568.28;5056362;28;45533;-77
2022/09/20 01:56:06;;;;;;;;;2.50;1.00;;;;;12.40;57.20;101572.69;5056527;28;46777;-77
2022/09/20 01:59:01;;;;;;;;;1.00;1.00;;;;;12.40;57.40;101570.94;5053469;28;45617;-77
2022/09/20 02:02:06;;;;;;;;;2.00;2.00;;;;;12.37;57.84;101570.06;5053195;28;45403;-78
2022/09/20 02:04:50;;;;;;;;;1.00;1.00;;;;;12.36;58.14;101574.50;5058785;28;45499;-77
2022/09/20 02:07:42;;;;;;;;;1.25;1.00;;;;;12.32;57.71;101550.72;5055258;28;46259;-76
2022/09/20 02:10:11;;;;;;;;;1.25;1.25;;;;;12.34;58.29;101570.13;5094714;27;45574;-75
2022/09/20 02:12:49;;;;;;;;;1.00;1.00;;;;;12.31;57.98;101562.19;5095620;27;45406;-78
2022/09/20 02:15:40;;;;;;;;;1.75;1.75;;;;;12.33;57.63;101547.16;5075949;27;45369;-79
2022/09/20 02:18:27;;;;;;;;;1.00;1.00;;;;;12.33;58.18;101557.75;5078625;27;46221;-77
2022/09/20 02:21:10;;;;;;;;;1.50;1.00;;;;;12.20;58.32;101531.38;5078501;27;45437;-77
2022/09/20 02:24:18;;;;;;;;;2.00;0.75;;;;;12.29;58.36;101556.91;5075981;27;45484;-77
2022/09/20 02:26:43;;;;;;;;;1.00;0.75;;;;;12.27;58.29;101562.22;5074760;28;45559;-78
2022/09/20 02:29:19;;;;;;;;;1.00;1.00;;;;;12.23;58.01;101549.03;5075022;28;46341;-78
2022/09/20 02:32:14;;;;;;;;;1.50;1.50;;;;;12.26;58.21;101563.13;5075525;28;45377;-76
2022/09/20 02:34:48;;;;;;;;;1.50;1.50;;;;;12.25;58.68;101558.72;5078710;27;45488;-76
2022/09/20 02:37:51;;;;;;;;;3.50;2.50;;;;;12.25;58.45;101568.44;5074380;27;45352;-77
2022/09/20 02:40:39;;;;;;;;;1.00;1.00;;;;;12.22;58.25;101566.72;5077420;27;46408;-77
2022/09/20 02:43:34;;;;;;;;;1.00;1.00;;;;;12.20;58.24;101568.50;5088908;27;45468;-77
2022/09/20 02:46:09;;;;;;;;;3.00;3.00;;;;;12.06;58.35;101560.69;5075596;27;45462;-79
2022/09/20 02:49:01;;;;;;;;;2.00;2.00;;;;;12.12;58.01;101567.72;5076996;28;45434;-77
2022/09/20 02:51:42;;;;;;;;;1.50;1.50;;;;;12.12;58.39;101580.09;5075276;28;45478;-77
2022/09/20 02:54:38;;;;;;;;;2.00;2.00;;;;;12.09;58.14;101578.34;5082833;27;45490;-78
2022/09/20 02:57:24;;;;;;;;;2.50;1.50;;;;;12.01;58.44;101569.56;5079961;27;45345;-77
2022/09/20 03:00:17;;;;;;;;;1.00;1.00;;;;;11.96;58.53;101558.16;5074527;28;45536;-77
2022/09/20 03:03:07;;;;;;;;;2.25;1.00;;;;;11.96;58.63;101569.63;5073803;27;46213;-77
2022/09/20 03:05:56;;;;;;;;;1.00;1.00;;;;;11.93;58.88;101572.31;5073509;27;45379;-78
2022/09/20 03:08:45;;;;;;;;;1.75;1.75;;;;;11.90;58.66;101573.19;5073180;27;45595;-77
2022/09/20 03:11:13;;;;;;;;;1.75;1.00;;;;;11.88;58.84;101567.03;5091791;27;45338;-77
2022/09/20 03:14:11;;;;;;;;;2.00;2.00;;;;;11.88;59.15;101577.63;5095276;27;45590;-77
2022/09/20 03:17:10;;;;;;;;;2.25;2.00;;;;;11.84;59.13;101575.91;5094019;27;45339;-78
2022/09/20 03:19:59;;;;;;;;;2.00;2.00;;;;;11.81;59.42;101565.34;5094540;27;45356;-78
2022/09/20 03:22:40;;;;;;;;;1.00;0.50;;;;;11.70;59.20;101570.72;5093596;27;45423;-78
2022/09/20 03:26:07;;;;;;;;;1.00;1.00;;;;;11.72;59.67;101576.00;5073721;27;46438;-76
2022/09/20 03:28:42;;;;;;;;;3.25;3.25;;;;;11.63;59.96;101571.69;4991749;28;45472;-77
2022/09/20 03:31:44;;;;;;;;;3.00;1.75;;;;;11.66;59.72;101574.31;4994952;28;45545;-77
2022/09/20 03:34:13;;;;;;;;;1.75;1.00;;;;;11.64;60.03;101572.56;5007851;28;45509;-77
2022/09/20 03:37:01;;;;;;;;;1.00;1.00;;;;;11.63;60.14;101576.97;5013119;28;46598;-78
2022/09/20 03:39:35;;;;;;;;;3.00;2.00;;;;;11.62;60.13;101577.00;5013277;28;45533;-77
2022/09/20 03:42:25;;;;;;;;;2.25;1.75;;;;;11.61;60.35;101580.53;5014644;28;45572;-78
2022/09/20 03:45:10;;;;;;;;;2.25;2.25;;;;;11.60;60.22;101579.66;5007525;28;45482;-78
2022/09/20 03:48:12;;;;;;;;;1.25;1.25;;;;;11.59;60.45;101585.81;5013170;28;46316;-77
2022/09/20 03:50:51;;;;;;;;;3.00;1.25;;;;;11.57;60.44;101582.31;5014210;28;45645;-78
2022/09/20 03:54:02;;;;;;;;;6.00;2.00;;;;;11.56;60.38;101573.47;5012905;28;45435;-76
2022/09/20 03:56:40;;;;;;;;;1.00;1.00;;;;;11.55;60.68;101581.44;4997990;28;45629;-75
2022/09/20 03:59:41;;;;;;;;;2.00;1.00;;;;;11.53;60.84;101576.16;5014136;28;46324;-76
2022/09/20 04:02:28;;;;;;;;;3.50;2.00;;;;;11.53;60.74;101570.88;5014231;28;45534;-78
2022/09/20 04:05:04;;;;;;;;;1.00;1.00;;;;;11.52;61.12;101569.13;5061324;27;45452;-77
2022/09/20 04:07:47;;;;;;;;;1.25;1.00;;;;;11.51;61.05;101569.16;5081601;27;45596;-77
2022/09/20 04:10:24;;;;;;;;;3.00;2.00;;;;;11.51;61.41;101566.50;5088734;27;46181;-78
2022/09/20 04:13:15;;;;;;;;;2.00;2.00;;;;;11.47;61.25;101570.91;5077612;27;45437;-77
2022/09/20 04:15:55;;;;;;;;;1.75;1.00;;;;;11.47;61.37;101576.22;5081140;27;45452;-79
2022/09/20 04:18:42;;;;;;;;;2.00;2.00;;;;;11.43;61.63;101576.25;5077289;27;45477;-79
2022/09/20 04:21:13;;;;;;;;;2.00;2.00;;;;;11.42;61.75;101577.13;5076882;27;45395;-79
2022/09/20 04:24:09;;;;;;;;;3.50;1.75;;;;;11.42;61.71;101580.66;5076672;27;45437;-79
2022/09/20 04:26:42;;;;;;;;;2.00;2.00;;;;;11.41;61.79;101580.69;5075678;27;45559;-79
2022/09/20 04:29:32;;;;;;;;;1.75;1.75;;;;;11.43;61.75;101578.91;5077432;27;45411;-80
2022/09/20 04:32:16;;;;;;;;;5.75;2.00;;;;;11.42;62.06;101575.38;5076221;28;46379;-79
2022/09/20 04:37:35;;;;;;;;;0.75;0.75;;;;;11.28;62.26;101564.00;5082383;27;45567;-80
2022/09/20 04:40:19;;;;;;;;;1.00;1.00;;;;;11.34;62.42;101575.44;5080003;27;45525;-79
2022/09/20 04:43:09;;;;;;;;;2.00;2.00;;;;;11.34;62.21;101590.41;5093594;27;45547;-78
2022/09/20 04:46:04;;;;;;;;;3.00;3.00;;;;;11.32;62.29;101578.97;5076782;27;45519;-79
2022/09/20 04:49:08;;;;;;;;;2.50;2.50;;;;;11.31;62.83;101574.56;5075485;27;45461;-77
2022/09/20 04:52:21;;;;;;;;;2.75;2.75;;;;;11.27;62.61;101584.31;5076098;28;45586;-76
2022/09/20 04:55:18;;;;;;;;;5.25;2.00;;;;;11.29;62.92;101584.28;4979437;28;46335;-77
2022/09/20 04:58:21;;;;;;;;;1.50;1.50;;;;;11.32;62.70;101592.22;4978182;28;45682;-79
2022/09/20 05:01:09;;;;;;;;;1.25;1.00;;;;;11.33;62.68;101591.34;4994586;28;45559;-77
2022/09/20 05:04:02;;;;;;;;;2.00;1.00;;;;;11.33;62.71;101593.97;4989335;28;45504;-78
2022/09/20 05:07:09;;;;;;;;;7.50;4.00;;;;;11.34;62.91;101593.97;4974681;28;45500;-78
2022/09/20 05:09:59;;;;;;;;;2.75;2.75;;;;;11.37;62.86;101600.97;4936944;28;45363;-79
2022/09/20 05:12:34;;;;;;;;;1.75;1.75;;;;;11.38;63.17;101602.75;4951838;28;45437;-78
2022/09/20 05:15:08;;;;;;;;;6.00;3.25;;;;;11.38;62.67;101600.97;4938760;28;45723;-77
2022/09/20 05:17:36;;;;;;;;;3.00;2.00;;;;;11.36;62.92;101600.13;4933799;28;45564;-78
2022/09/20 05:20:26;;;;;;;;;5.25;2.00;;;;;11.40;62.68;101610.69;4934760;28;45403;-78
2022/09/20 05:23:12;;;;;;;;;0.00;0.00;;;;;11.35;62.87;101597.47;4934845;28;45637;-77
2022/09/20 05:25:46;;;;;;;;;3.25;2.50;;;;;11.29;62.80;101595.75;4935553;28;45518;-78
2022/09/20 05:28:25;;;;;;;;;1.00;1.00;;;;;11.30;62.57;101583.41;4966375;28;45534;-78
2022/09/20 05:30:56;;;;;;;;;1.25;1.00;;;;;11.32;62.65;101592.22;5021703;28;45553;-78
2022/09/20 05:33:52;;;;;;;;;3.00;3.00;;;;;11.34;63.04;101593.06;5032846;28;45581;-79
2022/09/20 05:36:48;;;;;;;;;2.75;2.75;;;;;11.40;62.27;101600.97;5028416;28;45533;-78
2022/09/20 05:39:41;;;;;;;;;2.00;2.00;;;;;11.43;62.33;101595.66;5033384;28;46365;-79
2022/09/20 05:42:17;;;;;;;;;6.25;5.50;;;;;11.51;62.02;101603.56;5029789;28;45494;-78
2022/09/20 05:45:13;;;;;;;;;5.00;5.00;;;;;11.54;62.44;101598.25;5084876;27;45459;-80
2022/09/20 05:48:00;;;;;;;;;2.75;2.75;;;;;11.84;61.50;101597.09;5095953;27;45463;-78
2022/09/20 05:50:40;;;;;;;;;5.00;5.00;;;;;12.26;61.06;101594.94;5090199;27;46030;-79
2022/09/20 05:53:50;;;;;;;;;6.25;5.25;;;;;12.84;59.27;101611.03;5074762;27;45378;-79
2022/09/20 05:56:32;;;;;;;;;3.00;3.00;;;;;13.42;57.73;101608.50;4993071;28;45484;-77
2022/09/20 05:59:20;;;;;;;;;6.00;4.50;;;;;14.12;56.53;101603.78;4992865;28;45555;-79
2022/09/20 06:01:57;;;;;;;;;5.00;5.00;;;;;14.81;53.97;101598.88;4992095;28;45469;-78
2022/09/20 06:04:28;;;;;;;;;3.00;3.00;;;;;15.43;53.06;101598.38;5002731;28;45431;-77
2022/09/20 06:07:08;;;;;;;;;6.00;5.25;;;;;15.84;50.88;101598.28;5014324;28;45522;-78
2022/09/20 06:09:54;;;;;;;;;4.50;3.00;;;;;15.59;51.17;101611.31;5011893;28;45480;-77
2022/09/20 06:12:23;;;;;;;;;4.00;3.00;;;;;15.16;51.76;101604.34;5011745;28;46237;-79
2022/09/20 06:15:11;;;;;;;;;4.25;4.00;;;;;14.88;52.59;101604.97;5012189;28;45526;-77
2022/09/20 06:17:51;;;;;;;;;7.00;5.00;;;;;14.68;52.88;101610.69;5013862;28;45470;-80
2022/09/20 06:20:17;;;;;;;;;3.00;3.00;;;;;14.53;53.47;101614.50;5011632;28;45596;-78
2022/09/20 06:22:47;;;;;;;;;5.25;5.25;;;;;14.42;53.71;101621.84;4991731;28;45475;-79
2022/09/20 06:25:41;;;;;;;;;3.50;2.25;;;;;14.24;54.48;101623.91;4995491;28;45445;-80
2022/09/20 06:28:20;;;;;;;;;2.00;2.00;;;;;14.12;54.60;101630.38;5012345;28;45592;-79
2022/09/20 06:30:49;;;;;;;;;7.00;4.25;;;;;14.06;55.03;101626.91;4995755;28;45611;-80
2022/09/20 06:33:17;;;;;;;;;2.75;2.75;;;;;13.99;54.85;101628.81;5046152;28;46549;-77
2022/09/20 06:35:46;;;;;;;;;5.00;5.00;;;;;13.83;55.03;101612.25;5075715;27;45578;-78
2022/09/20 06:41:27;;;;;;;;;5.50;5.50;;;;;13.79;55.69;101618.53;5084119;27;45392;-78
2022/09/20 06:43:57;;;;;;;;;3.25;2.75;;;;;13.74;55.72;101617.72;5075453;28;46234;-84
2022/09/20 06:46:27;;;;;;;;;4.50;2.00;;;;;13.44;55.21;101580.16;5074154;27;45333;-78
2022/09/20 06:48:54;;;;;;;;;1.50;1.50;;;;;13.60;56.49;101621.47;5089520;27;45490;-78
2022/09/20 06:51:20;;;;;;;;;5.75;3.00;;;;;13.59;56.31;101633.03;5086134;27;45519;-78
2022/09/20 06:53:46;;;;;;;;;5.00;5.00;;;;;13.56;56.25;101627.75;5073818;27;47049;-77
2022/09/20 06:56:22;;;;;;;;;0.75;0.75;;;;;13.48;56.61;101619.00;5074336;27;45452;-78
2022/09/20 06:58:48;;;;;;;;;5.00;5.00;;;;;13.58;56.85;101633.91;5094521;27;45484;-79
2022/09/20 07:01:14;;;;;;;;;5.00;3.00;;;;;13.58;56.98;101633.91;5086148;27;45366;-78
2022/09/20 07:03:40;;;;;;;;;5.75;4.50;;;;;13.54;56.22;101626.03;5095091;27;45377;-78
2022/09/20 07:06:07;;;;;;;;;2.75;2.75;;;;;13.55;56.20;101631.31;5094676;27;45384;-78
2022/09/20 07:08:33;;;;;;;;;6.00;5.50;;;;;13.42;56.82;101596.13;5075121;27;45569;-76
2022/09/20 07:11:03;;;;;;;;;6.25;6.25;;;;;13.55;56.48;101628.66;5090739;27;45417;-76
2022/09/20 07:13:28;;;;;;;;;7.75;6.00;;;;;13.58;56.88;101631.25;5092906;27;46220;-77
2022/09/20 07:16:05;;;;;;;;;5.25;4.00;;;;;13.56;56.20;101626.88;5088619;27;45588;-79
2022/09/20 07:18:32;;;;;;;;;6.75;5.00;;;;;13.62;55.89;101640.03;5089894;27;45671;-78
2022/09/20 07:20:58;;;;;;;;;2.50;2.50;;;;;13.56;56.32;101635.72;5099243;27;45600;-79
2022/09/20 07:23:25;;;;;;;;;6.00;6.00;;;;;13.59;56.63;101641.00;5089064;27;45586;-79
2022/09/20 07:25:51;;;;;;;;;8.00;7.00;;;;;13.58;55.86;101636.56;5073213;27;45541;-78
2022/09/20 07:28:21;;;;;;;;;6.00;4.50;;;;;13.59;56.58;101635.69;5089963;27;45575;-78
2022/09/20 07:30:46;;;;;;;;;6.75;6.75;;;;;13.55;56.47;101633.97;5084509;27;45397;-78
2022/09/20 07:33:18;;;;;;;;;8.00;6.00;;;;;13.53;56.41;101638.44;5078950;27;46166;-76
2022/09/20 07:35:44;;;;;;;;;5.50;5.50;;;;;13.36;55.85;101611.25;5073330;27;45446;-79
2022/09/20 07:38:11;;;;;;;;;5.50;4.00;;;;;13.52;56.23;101643.78;5088576;27;45359;-76
2022/09/20 07:40:36;;;;;;;;;9.50;6.75;;;;;13.54;55.80;101650.78;5092259;27;45444;-79
2022/09/20 07:43:01;;;;;;;;;6.75;6.00;;;;;13.59;56.13;101658.69;5085431;27;46920;-78
2022/09/20 07:45:27;;;;;;;;;6.00;6.00;;;;;13.61;56.72;101659.56;5100371;27;45637;-78
2022/09/20 07:47:53;;;;;;;;;5.50;5.25;;;;;13.55;56.40;101659.66;5090934;27;45506;-78
2022/09/20 07:50:18;;;;;;;;;4.75;3.00;;;;;13.64;56.47;101665.69;5080844;27;45587;-78
2022/09/20 07:52:44;;;;;;;;;5.00;5.00;;;;;13.67;56.01;101670.09;5091628;27;45501;-78
2022/09/20 07:55:09;;;;;;;;;7.00;7.00;;;;;13.67;56.84;101670.94;5093897;27;45424;-76
2022/09/20 07:57:36;;;;;;;;;5.75;5.75;;;;;13.61;55.85;101655.13;5084533;27;45421;-78
2022/09/20 08:00:05;;;;;;;;;5.25;5.25;;;;;13.71;55.91;101676.22;5097400;27;45441;-77
2022/09/20 08:02:30;;;;;;;;;6.75;5.75;;;;;13.69;55.40;101673.59;5095996;27;45421;-79
2022/09/20 08:04:56;;;;;;;;;6.50;6.25;;;;;13.70;56.31;101675.34;5093937;27;45354;-81
2022/09/20 08:07:21;;;;;;;;;8.25;5.00;;;;;13.80;55.61;101676.06;5085638;27;45388;-78
2022/09/20 08:09:46;;;;;;;;;8.00;4.00;;;;;13.80;55.77;101676.06;5074281;27;45264;-77
2022/09/20 08:12:13;;;;;;;;;6.50;5.75;;;;;13.80;55.87;101673.41;5072821;27;46121;-78
2022/09/20 08:14:40;;;;;;;;;6.50;6.50;;;;;13.91;55.47;101684.75;5089938;27;45544;-76
2022/09/20 08:17:05;;;;;;;;;7.75;6.25;;;;;13.97;55.50;101676.69;5096600;27;45539;-77
2022/09/20 08:19:30;;;;;;;;;7.75;6.75;;;;;14.06;55.50;101688.06;5085209;27;45539;-76
2022/09/20 08:21:56;;;;;;;;;3.50;3.50;;;;;14.09;55.26;101688.91;5097162;27;46633;-78
2022/09/20 08:24:21;;;;;;;;;3.75;3.50;;;;;14.13;54.69;101685.25;5096454;27;45450;-76
2022/09/20 08:26:47;;;;;;;;;1.00;1.00;;;;;14.14;55.00;101683.50;5085600;27;45563;-76
2022/09/20 08:29:14;;;;;;;;;7.50;4.50;;;;;14.10;54.51;101676.47;5076727;27;45430;-76
2022/09/20 08:31:41;;;;;;;;;4.75;3.75;;;;;14.15;54.60;101675.50;5076586;28;45347;-77
2022/09/20 08:34:10;;;;;;;;;6.00;4.75;;;;;14.21;54.53;101685.13;5077322;27;45450;-85
2022/09/20 08:36:39;;;;;;;;;2.75;1.50;;;;;14.28;54.93;101694.75;5078251;27;45448;-83
2022/09/20 08:39:05;;;;;;;;;4.75;3.50;;;;;14.25;54.94;101692.16;5077112;27;45411;-76
2022/09/20 08:41:37;;;;;;;;;2.75;2.75;;;;;14.24;54.40;101690.38;5089906;27;45431;-76
2022/09/20 08:44:27;;;;;;;;;3.00;3.00;;;;;14.29;55.07;101691.22;5096394;27;45452;-75
2022/09/20 08:47:06;;;;;;;;;3.50;3.50;;;;;14.31;54.66;101694.69;5094084;27;45538;-76
2022/09/20 08:49:32;;;;;;;;;3.00;3.00;;;;;14.46;55.17;101700.66;5091511;27;45500;-76
2022/09/20 08:52:00;;;;;;;;;6.00;3.00;;;;;14.57;54.46;101702.22;5097267;27;45402;-75
2022/09/20 08:54:26;;;;;;;;;6.75;6.75;;;;;14.58;54.36;101698.63;5096059;27;45377;-77
2022/09/20 08:56:52;;;;;;;;;3.00;3.00;;;;;14.73;54.19;101710.81;5084941;27;45394;-82
2022/09/20 08:59:20;;;;;;;;;7.75;6.75;;;;;14.70;53.79;101704.69;5076674;27;45544;-78
2022/09/20 09:01:47;;;;;;;;;3.50;3.50;;;;;14.77;53.62;101713.41;5075387;27;45499;-78
2022/09/20 09:04:14;;;;;;;;;3.50;3.50;;;;;14.81;53.46;101715.13;5075984;27;45421;-77
2022/09/20 09:06:41;;;;;;;;;3.00;3.00;;;;;14.92;53.56;101705.13;5075951;27;45496;-76
2022/09/20 09:09:12;;;;;;;;;6.50;3.00;;;;;14.97;53.32;101708.59;5074619;27;45493;-78
2022/09/20 09:11:40;;;;;;;;;5.25;3.25;;;;;15.02;53.02;101687.19;5074840;28;46564;-77
2022/09/20 09:16:56;;;;;;;;;7.25;3.50;;;;;15.30;52.85;101705.22;5089305;27;45497;-78
2022/09/20 09:19:30;;;;;;;;;3.00;3.00;;;;;15.30;52.70;101690.13;5088283;27;45465;-78
2022/09/20 09:22:01;;;;;;;;;6.25;4.50;;;;;15.49;52.58;101709.25;5076780;27;46257;-78
2022/09/20 09:24:27;;;;;;;;;3.00;2.75;;;;;15.57;52.15;101712.59;5091884;27;45570;-77
2022/09/20 09:27:13;;;;;;;;;7.75;5.75;;;;;15.60;52.02;101712.53;5079021;27;45465;-76
2022/09/20 09:29:53;;;;;;;;;6.25;4.50;;;;;15.73;52.53;101715.78;5091850;27;45611;-75
2022/09/20 09:32:29;;;;;;;;;6.50;5.25;;;;;15.69;51.54;101703.44;5075671;27;46092;-76
2022/09/20 09:34:56;;;;;;;;;9.50;7.25;;;;;15.78;51.91;101705.91;5085589;27;45457;-77
2022/09/20 09:37:24;;;;;;;;;6.75;6.75;;;;;15.85;51.50;101706.66;5074120;27;45466;-77
2022/09/20 09:40:15;;;;;;;;;3.00;3.00;;;;;15.97;51.04;101702.81;5074670;27;45645;-77
2022/09/20 09:42:50;;;;;;;;;8.00;5.25;;;;;16.06;50.92;101699.91;5094833;27;46722;-78
2022/09/20 09:45:37;;;;;;;;;6.50;2.75;;;;;16.23;50.42;101709.28;5079432;27;45489;-78
2022/09/20 09:48:19;;;;;;;;;7.50;5.00;;;;;16.34;50.38;101702.75;5089221;27;45456;-77
2022/09/20 09:50:46;;;;;;;;;3.75;3.75;;;;;16.39;49.34;101702.63;5073523;28;45427;-77
2022/09/20 09:53:15;;;;;;;;;3.00;3.00;;;;;16.35;50.30;101679.59;5078104;27;46243;-76
2022/09/20 09:55:59;;;;;;;;;5.50;3.75;;;;;16.56;48.40;101698.63;5078930;27;45498;-78
2022/09/20 09:58:46;;;;;;;;;7.75;6.00;;;;;16.54;49.03;101697.81;5095542;27;45374;-77
2022/09/20 10:01:30;;;;;;;;;6.00;4.00;;;;;16.57;49.21;101697.72;5075506;27;45377;-77
2022/09/20 10:04:05;;;;;;;;;6.00;4.50;;;;;16.67;49.23;101694.75;5074728;27;46060;-80
2022/09/20 10:06:44;;;;;;;;;3.50;3.50;;;;;16.46;47.79;101648.19;5074548;27;45643;-78
2022/09/20 10:09:13;;;;;;;;;2.50;2.50;;;;;16.81;47.68;101694.38;5074546;27;45516;-80
2022/09/20 10:11:57;;;;;;;;;2.75;2.00;;;;;16.83;47.20;101684.50;5087728;27;45568;-78
2022/09/20 10:14:28;;;;;;;;;3.00;3.00;;;;;16.96;46.83;101686.84;5095603;27;45377;-80
2022/09/20 10:17:00;;;;;;;;;2.75;2.75;;;;;17.05;46.24;101689.28;5088359;27;45652;-79
2022/09/20 10:19:57;;;;;;;;;4.00;3.00;;;;;17.12;46.55;101687.28;5087190;27;45383;-77
2022/09/20 10:22:33;;;;;;;;;3.00;3.00;;;;;17.18;45.99;101693.31;5085929;27;45423;-79
2022/09/20 10:25:23;;;;;;;;;1.75;1.75;;;;;17.17;45.33;101680.91;5091632;27;46316;-78
2022/09/20 10:28:16;;;;;;;;;3.25;1.00;;;;;17.40;44.52;101682.84;5077210;27;45483;-78
2022/09/20 10:30:57;;;;;;;;;2.00;2.00;;;;;17.50;43.88;101678.09;5098571;27;45492;-78
2022/09/20 10:33:28;;;;;;;;;3.00;3.00;;;;;17.67;44.42;101685.59;5084139;27;45446;-79
2022/09/20 10:35:54;;;;;;;;;3.00;1.75;;;;;17.81;44.26;101678.91;5089904;27;46200;-77
2022/09/20 10:38:28;;;;;;;;;2.00;2.00;;;;;18.03;43.88;101682.63;5105207;27;45464;-77
2022/09/20 10:44:06;;;;;;;;;1.50;1.50;;;;;18.40;42.57;101684.06;5095174;27;45402;-77
2022/09/20 10:46:44;;;;;;;;;2.25;2.00;;;;;18.48;42.20;101654.34;5097468;27;46201;-78
2022/09/20 10:49:40;;;;;;;;;3.25;2.00;;;;;18.71;42.60;101680.28;5095393;27;45386;-77
2022/09/20 10:52:27;;;;;;;;;1.00;1.00;;;;;18.89;41.93;101677.88;5084928;27;45335;-79
2022/09/20 10:55:27;;;;;;;;;2.00;2.00;;;;;19.05;41.62;101673.69;5075080;27;45396;-77
2022/09/20 10:58:08;;;;;;;;;2.00;1.00;;;;;18.97;40.65;101659.72;5080078;27;46436;-79
2022/09/20 11:00:54;;;;;;;;;3.50;2.00;;;;;19.23;40.38;101668.56;5076486;27;45346;-79
2022/09/20 11:03:56;;;;;;;;;1.75;1.75;;;;;19.41;40.61;101672.31;5074668;27;45280;-78
2022/09/20 11:06:37;;;;;;;;;2.00;2.00;;;;;19.47;40.25;101669.41;5079771;27;45615;-79
2022/09/20 11:09:08;;;;;;;;;2.00;2.00;;;;;19.55;40.39;101663.72;5077030;27;45527;-77
2022/09/20 11:11:43;;;;;;;;;4.00;4.00;;;;;19.72;40.52;101669.25;5080046;27;45554;-77
2022/09/20 11:14:22;;;;;;;;;2.75;2.75;;;;;19.92;39.35;101655.06;5074634;27;45423;-77
2022/09/20 11:16:59;;;;;;;;;3.00;2.00;;;;;19.87;38.91;101630.22;5091121;27;45466;-77
2022/09/20 11:19:32;;;;;;;;;2.50;2.50;;;;;20.07;38.51;101672.28;5089595;27;45502;-79
2022/09/20 11:22:00;;;;;;;;;1.25;1.25;;;;;20.16;37.84;101663.00;5073648;27;45415;-78
2022/09/20 11:24:38;;;;;;;;;2.00;2.00;;;;;20.27;38.18;101662.53;5079842;27;45415;-77
2022/09/20 11:27:31;;;;;;;;;2.00;2.00;;;;;20.45;37.97;101664.38;5090303;27;45503;-81
2022/09/20 11:30:02;;;;;;;;;4.75;3.50;;;;;20.58;38.71;101659.34;5088149;27;46141;-79
2022/09/20 11:32:38;;;;;;;;;3.75;3.75;;;;;20.67;37.96;101658.97;5078023;27;45536;-80
2022/09/20 11:35:33;;;;;;;;;2.00;2.00;;;;;20.90;37.67;101657.06;5078776;27;45339;-80
2022/09/20 11:38:17;;;;;;;;;2.00;2.00;;;;;21.15;36.72;101654.09;5031001;28;45678;-79
2022/09/20 11:40:49;;;;;;;;;2.25;2.25;;;;;21.28;36.57;101649.84;5037988;28;46375;-78
2022/09/20 11:43:17;;;;;;;;;4.00;3.00;;;;;21.46;35.93;101631.94;5049355;28;45467;-79
2022/09/20 11:45:46;;;;;;;;;3.50;2.75;;;;;21.71;35.84;101646.94;5039903;28;45936;-81
2022/09/20 11:48:27;;;;;;;;;3.00;3.00;;;;;21.82;36.01;101639.19;5053322;28;45726;-80
2022/09/20 11:51:07;;;;;;;;;2.00;2.00;;;;;22.07;35.16;101647.81;5032805;28;46419;-79
2022/09/20 11:54:33;;;;;;;;;2.00;2.00;;;;;22.07;35.34;101643.28;5041479;28;45421;-79
2022/09/20 11:56:59;;;;;;;;;3.50;3.50;;;;;22.06;34.75;101628.13;4985790;28;45578;-79
2022/09/20 11:59:32;;;;;;;;;2.50;2.50;;;;;21.95;34.34;101633.16;5034525;28;45578;-79
2022/09/20 12:02:00;;;;;;;;;3.50;3.50;;;;;21.68;34.86;101625.53;5033796;28;46236;-78
2022/09/20 12:04:30;;;;;;;;;3.75;2.75;;;;;21.63;35.85;101649.97;5049907;28;45475;-79
2022/09/20 12:07:13;;;;;;;;;2.50;2.50;;;;;21.51;35.42;101653.28;5035137;28;45607;-79
2022/09/20 12:09:42;;;;;;;;;7.00;3.50;;;;;21.38;36.23;101642.22;5054455;28;45599;-80
2022/09/20 12:12:40;;;;;;;;;3.75;3.75;;;;;21.35;36.36;101644.16;5055307;28;45475;-78
2022/09/20 12:15:22;;;;;;;;;2.00;2.00;;;;;21.27;36.62;101628.41;5075666;27;45437;-79
2022/09/20 12:17:48;;;;;;;;;5.25;4.50;;;;;21.08;37.29;101617.69;5098049;27;45439;-80
2022/09/20 12:20:31;;;;;;;;;6.25;3.00;;;;;21.12;36.56;101636.28;5111074;27;45429;-79
2022/09/20 12:23:34;;;;;;;;;3.00;3.00;;;;;21.02;36.97;101636.81;5091822;27;46223;-79
2022/09/20 12:26:12;;;;;;;;;4.00;3.25;;;;;20.93;37.39;101632.72;5076197;27;45496;-79